Time;durP1;ratioP1;P1;durP2;ratioP2;P2;SDS_P1;SDS_P2;PMS_P1;PMS_P2;Temp;Humidity;BMP_temperature;BMP_pressure;BME280_temperature;BME280_humidity;BME280_pressure;Samples;Min_cycle;Max_cycle;Signal;HPM_P1;HPM_P2
2024/01/13 00:00:02;;;;;;;12.90;10.90;;;;;;;-0.58;90.12;100272.92;110199;1276;22254;-84
2024/01/13 00:02:30;;;;;;;13.70;11.30;;;;;;;-0.56;90.03;100274.00;110273;1278;22429;-84
2024/01/13 00:05:00;;;;;;;13.00;11.60;;;;;;;-0.56;90.08;100272.11;109871;1283;22239;-83
2024/01/13 00:07:27;;;;;;;14.40;12.10;;;;;;;-0.56;90.06;100271.27;109883;1283;22202;-83
2024/01/13 00:09:54;;;;;;;13.30;10.90;;;;;;;-0.55;90.03;100268.52;109885;1282;22258;-81
2024/01/13 00:12:21;;;;;;;13.50;11.50;;;;;;;-0.58;89.98;100270.86;109712;1289;23330;-81
2024/01/13 00:14:51;;;;;;;13.40;12.00;;;;;;;-0.60;90.12;100268.34;109829;1289;22254;-80
2024/01/13 00:17:20;;;;;;;13.40;11.20;;;;;;;-0.61;90.15;100267.10;109862;1286;22240;-81
2024/01/13 00:19:47;;;;;;;13.80;11.40;;;;;;;-0.59;90.19;100269.23;109679;1289;22177;-80
2024/01/13 00:22:18;;;;;;;12.80;10.70;;;;;;;-0.55;90.28;100270.25;109606;1285;22220;-81
2024/01/13 00:24:45;;;;;;;11.90;10.60;;;;;;;-0.52;90.13;100274.18;109752;1287;22249;-83
2024/01/13 00:27:13;;;;;;;13.40;11.20;;;;;;;-0.53;89.98;100273.45;109779;1287;22176;-81
2024/01/13 00:29:45;;;;;;;13.30;11.10;;;;;;;-0.56;90.05;100267.13;109720;1283;22854;-85
2024/01/13 00:32:15;;;;;;;13.20;11.50;;;;;;;-0.53;90.02;100268.25;109939;1280;22283;-82
2024/01/13 00:34:42;;;;;;;12.50;10.90;;;;;;;-0.55;90.00;100272.67;109939;1283;22158;-81
2024/01/13 00:37:10;;;;;;;12.80;10.50;;;;;;;-0.59;90.06;100272.55;109731;1286;22921;-83
2024/01/13 00:39:38;;;;;;;12.20;10.50;;;;;;;-0.57;90.28;100270.36;109675;1286;22372;-82
2024/01/13 00:42:05;;;;;;;13.40;11.40;;;;;;;-0.56;90.10;100267.79;109706;1286;22254;-84
2024/01/13 00:44:34;;;;;;;13.50;11.10;;;;;;;-0.58;90.07;100264.98;109859;1281;23330;-83
2024/01/13 00:47:01;;;;;;;11.40;10.20;;;;;;;-0.60;90.15;100260.06;109539;1287;22175;-82
2024/01/13 00:49:29;;;;;;;10.50;9.20;;;;;;;-0.59;90.25;100255.92;109686;1284;22844;-82
2024/01/13 00:51:59;;;;;;;15.30;11.70;;;;;;;-0.58;90.22;100258.40;109796;1284;22160;-83
2024/01/13 00:54:27;;;;;;;12.30;10.10;;;;;;;-0.54;90.43;100261.98;109414;1286;22364;-83
2024/01/13 00:56:56;;;;;;;11.30;9.50;;;;;;;-0.51;90.27;100259.48;109774;1280;22949;-83
2024/01/13 00:59:24;;;;;;;11.90;10.40;;;;;;;-0.49;90.15;100260.41;109759;1286;22172;-83
2024/01/13 01:01:52;;;;;;;12.20;10.20;;;;;;;-0.48;89.88;100256.29;109699;1278;23161;-84
2024/01/13 01:04:20;;;;;;;12.90;10.90;;;;;;;-0.45;90.23;100245.48;109763;1280;22200;-84
2024/01/13 01:06:47;;;;;;;12.40;10.40;;;;;;;-0.41;90.08;100252.73;109822;1283;22348;-84
2024/01/13 01:09:16;;;;;;;12.10;10.00;;;;;;;-0.41;89.83;100241.13;109758;1285;22888;-83
2024/01/13 01:11:46;;;;;;;11.10;9.20;;;;;;;-0.36;89.92;100239.55;109758;1279;22910;-84
2024/01/13 01:14:13;;;;;;;10.10;8.40;;;;;;;-0.34;89.55;100241.20;109714;1285;22466;-83
2024/01/13 01:16:42;;;;;;;9.60;8.40;;;;;;;-0.35;89.60;100232.34;109838;1285;22171;-83
2024/01/13 01:19:27;;;;;;;;;;;;;;;;;;;;;
2024/01/13 01:21:55;;;;;;;10.10;8.70;;;;;;;-0.35;89.54;100238.91;109516;1289;22201;-83
2024/01/13 01:24:22;;;;;;;12.50;9.60;;;;;;;-0.34;89.30;100227.02;109034;1290;22255;-83
2024/01/13 01:26:50;;;;;;;8.70;7.60;;;;;;;-0.35;89.26;100234.05;109103;1293;22247;-83
2024/01/13 01:29:24;;;;;;;11.40;9.20;;;;;;;-0.33;89.40;100239.66;109073;1293;22182;-83
2024/01/13 01:31:53;;;;;;;9.00;8.10;;;;;;;-0.33;89.14;100240.85;109256;1288;22162;-84
2024/01/13 01:34:21;;;;;;;11.10;9.00;;;;;;;-0.32;89.08;100247.98;109123;1289;22262;-83
2024/01/13 01:36:49;;;;;;;8.20;7.20;;;;;;;-0.32;89.02;100244.53;108637;1294;22189;-83
2024/01/13 01:39:16;;;;;;;11.90;8.90;;;;;;;-0.33;88.97;100244.48;109038;1292;22275;-84
2024/01/13 01:41:45;;;;;;;10.10;8.30;;;;;;;-0.34;88.87;100241.52;108981;1288;22198;-83
2024/01/13 01:44:12;;;;;;;9.80;7.60;;;;;;;-0.34;88.79;100242.40;109084;1289;22374;-84
2024/01/13 01:46:46;;;;;;;11.10;8.70;;;;;;;-0.32;88.86;100237.27;109518;1289;22157;-84
2024/01/13 01:49:17;;;;;;;9.30;7.70;;;;;;;-0.30;88.69;100236.46;108951;1294;22166;-83
2024/01/13 01:51:45;;;;;;;9.10;7.60;;;;;;;-0.34;88.52;100238.41;108957;1289;22362;-83
2024/01/13 01:54:13;;;;;;;8.60;7.70;;;;;;;-0.33;88.46;100239.66;108744;1290;22266;-83
2024/01/13 01:56:40;;;;;;;9.40;8.20;;;;;;;-0.33;88.27;100236.90;109314;1290;22202;-83
2024/01/13 01:59:10;;;;;;;8.90;7.90;;;;;;;-0.31;88.40;100229.67;109412;1290;22176;-83
2024/01/13 02:01:38;;;;;;;8.60;7.50;;;;;;;-0.29;88.35;100225.60;109619;1284;22368;-82
2024/01/13 02:04:06;;;;;;;7.70;6.60;;;;;;;-0.24;88.28;100218.83;109785;1279;22125;-83
2024/01/13 02:06:33;;;;;;;10.70;7.90;;;;;;;-0.19;87.98;100219.88;109930;1279;22387;-83
2024/01/13 02:09:01;;;;;;;7.90;7.00;;;;;;;-0.18;87.61;100220.41;109666;1276;22169;-83
2024/01/13 02:11:30;;;;;;;10.70;7.70;;;;;;;-0.19;87.42;100214.14;109724;1280;22412;-85
2024/01/13 02:14:01;;;;;;;10.90;7.50;;;;;;;-0.21;87.24;100216.00;110056;1280;22127;-83
2024/01/13 02:16:29;;;;;;;9.10;6.50;;;;;;;-0.25;86.89;100210.48;110029;1280;22255;-83
2024/01/13 02:18:57;;;;;;;7.60;6.30;;;;;;;-0.26;87.08;100208.04;109639;1286;22871;-83
2024/01/13 02:21:27;;;;;;;8.40;7.30;;;;;;;-0.26;86.93;100205.97;109678;1286;23008;-83
2024/01/13 02:23:54;;;;;;;8.30;6.90;;;;;;;-0.28;86.95;100204.19;109732;1286;22225;-84
2024/01/13 02:26:28;;;;;;;9.80;7.60;;;;;;;-0.28;86.76;100200.21;109833;1279;23139;-83
2024/01/13 02:28:56;;;;;;;8.70;7.10;;;;;;;-0.29;86.55;100191.85;109660;1285;22155;-83
2024/01/13 02:31:23;;;;;;;8.60;7.20;;;;;;;-0.30;86.68;100191.63;109726;1285;22348;-84
2024/01/13 02:33:52;;;;;;;8.00;7.20;;;;;;;-0.29;86.61;100188.57;109821;1285;22893;-83
2024/01/13 02:36:22;;;;;;;7.60;6.60;;;;;;;-0.30;86.58;100179.36;109902;1279;22349;-85
2024/01/13 02:38:52;;;;;;;7.20;6.10;;;;;;;-0.28;86.58;100179.75;109991;1278;23236;-84
2024/01/13 02:41:20;;;;;;;8.10;6.40;;;;;;;-0.31;86.29;100171.55;110090;1276;22261;-83
2024/01/13 02:43:49;;;;;;;9.70;7.00;;;;;;;-0.32;86.34;100173.91;110033;1274;23004;-82
2024/01/13 02:46:17;;;;;;;6.60;5.80;;;;;;;-0.34;86.42;100170.41;110040;1273;22848;-85
2024/01/13 02:48:54;;;;;;;6.40;5.80;;;;;;;-0.32;86.41;100167.52;109876;1280;22937;-82
2024/01/13 02:51:22;;;;;;;7.50;6.70;;;;;;;-0.35;86.36;100169.15;109854;1283;23245;-84
2024/01/13 02:53:49;;;;;;;8.70;7.00;;;;;;;-0.38;86.46;100156.77;109598;1287;22261;-85
2024/01/13 02:56:18;;;;;;;8.30;7.10;;;;;;;-0.37;86.56;100142.11;109270;1293;22202;-85
2024/01/13 02:58:46;;;;;;;7.80;6.10;;;;;;;-0.36;86.40;100147.48;109210;1293;22195;-86
2024/01/13 03:01:18;;;;;;;7.50;6.80;;;;;;;-0.35;86.28;100142.34;109085;1295;22443;-85
2024/01/13 03:03:49;;;;;;;7.00;6.30;;;;;;;-0.37;86.22;100146.10;108932;1295;22194;-85
2024/01/13 03:06:22;;;;;;;9.50;7.30;;;;;;;-0.37;86.23;100148.16;109068;1288;22178;-86
2024/01/13 03:08:55;;;;;;;7.20;6.30;;;;;;;-0.39;86.29;100145.84;109070;1295;22274;-84
2024/01/13 03:11:23;;;;;;;8.20;7.10;;;;;;;-0.40;86.13;100145.15;108587;1296;23046;-84
2024/01/13 03:13:53;;;;;;;8.80;7.00;;;;;;;-0.42;86.32;100150.79;108940;1288;23093;-83
2024/01/13 03:16:20;;;;;;;8.40;7.30;;;;;;;-0.43;86.43;100144.70;109696;1285;22732;-85
2024/01/13 03:18:48;;;;;;;9.20;7.00;;;;;;;-0.42;86.37;100148.38;109985;1270;22186;-85
2024/01/13 03:21:17;;;;;;;8.20;7.30;;;;;;;-0.39;86.46;100151.73;109652;1287;22998;-84
2024/01/13 03:23:45;;;;;;;8.60;7.70;;;;;;;-0.36;86.47;100150.98;109349;1292;22244;-84
2024/01/13 03:26:13;;;;;;;9.60;7.70;;;;;;;-0.33;86.53;100150.70;109631;1293;22255;-86
2024/01/13 03:28:42;;;;;;;10.70;7.10;;;;;;;-0.32;86.42;100150.92;109548;1288;22314;-84
2024/01/13 03:31:12;;;;;;;7.60;6.70;;;;;;;-0.33;86.27;100146.23;109051;1294;22189;-84
2024/01/13 03:33:47;;;;;;;8.60;6.90;;;;;;;-0.31;86.38;100149.55;108893;1294;22207;-85
2024/01/13 03:36:17;;;;;;;8.90;7.40;;;;;;;-0.31;86.40;100151.48;108321;1299;22189;-84
2024/01/13 03:38:46;;;;;;;8.40;7.60;;;;;;;-0.33;86.33;100153.50;108417;1301;22327;-83
2024/01/13 03:41:17;;;;;;;8.60;7.30;;;;;;;-0.32;86.40;100154.53;108478;1299;22307;-85
2024/01/13 03:43:46;;;;;;;9.70;8.00;;;;;;;-0.32;86.58;100150.05;108273;1301;23198;-84
2024/01/13 03:46:15;;;;;;;9.80;8.20;;;;;;;-0.30;86.58;100154.58;108497;1298;22175;-81
2024/01/13 03:48:44;;;;;;;8.60;6.70;;;;;;;-0.33;86.56;100148.29;108751;1294;22201;-82
2024/01/13 03:51:13;;;;;;;11.40;7.70;;;;;;;-0.33;86.70;100152.45;108712;1293;22909;-83
2024/01/13 03:53:41;;;;;;;9.20;7.50;;;;;;;-0.34;86.73;100134.08;108805;1293;22203;-83
2024/01/13 03:56:08;;;;;;;9.50;8.30;;;;;;;-0.34;86.88;100139.28;109002;1293;22291;-83
2024/01/13 03:58:38;;;;;;;12.40;10.00;;;;;;;-0.31;86.96;100142.30;108926;1293;22184;-84
2024/01/13 04:01:09;;;;;;;8.70;7.70;;;;;;;-0.31;86.93;100137.95;109163;1293;22286;-82
2024/01/13 04:03:37;;;;;;;11.30;8.00;;;;;;;-0.33;86.97;100139.29;108400;1299;22263;-84
2024/01/13 04:06:05;;;;;;;9.30;8.00;;;;;;;-0.35;87.10;100132.14;108515;1299;22217;-82
2024/01/13 04:08:34;;;;;;;9.50;8.20;;;;;;;-0.34;87.24;100133.20;108076;1297;22162;-84
2024/01/13 04:11:10;;;;;;;11.40;9.20;;;;;;;-0.33;87.24;100137.90;108675;1297;23070;-84
2024/01/13 04:13:37;;;;;;;10.20;9.20;;;;;;;-0.33;87.32;100139.28;108843;1295;22328;-82
2024/01/13 04:16:04;;;;;;;9.50;8.50;;;;;;;-0.31;87.32;100142.13;108553;1297;22260;-82
2024/01/13 04:18:32;;;;;;;10.80;9.30;;;;;;;-0.29;87.36;100140.63;108666;1297;22142;-83
2024/01/13 04:20:59;;;;;;;10.70;9.70;;;;;;;-0.28;87.45;100143.27;108127;1298;22180;-82
2024/01/13 04:23:43;;;;;;;10.30;9.10;;;;;;;-0.25;87.39;100141.61;108238;1300;22181;-84
2024/01/13 04:26:10;;;;;;;10.80;8.40;;;;;;;-0.23;87.48;100148.05;108389;1296;22356;-84
2024/01/13 04:28:38;;;;;;;11.20;9.90;;;;;;;-0.18;87.50;100156.00;108797;1292;22375;-84
2024/01/13 04:31:07;;;;;;;13.10;10.60;;;;;;;-0.19;87.30;100162.06;108913;1296;22183;-84
2024/01/13 04:33:35;;;;;;;11.70;10.10;;;;;;;-0.20;87.49;100165.64;108617;1296;22255;-84
2024/01/13 04:36:03;;;;;;;11.90;10.20;;;;;;;-0.18;87.64;100166.40;108926;1296;22167;-84
2024/01/13 04:38:31;;;;;;;10.20;8.90;;;;;;;-0.19;87.57;100161.88;108887;1291;22192;-84
2024/01/13 04:40:59;;;;;;;11.40;9.20;;;;;;;-0.20;87.62;100159.94;109268;1290;22179;-83
2024/01/13 04:43:26;;;;;;;14.10;10.80;;;;;;;-0.22;87.73;100156.22;109414;1291;22261;-85
2024/01/13 04:45:53;;;;;;;10.80;9.50;;;;;;;-0.24;88.00;100156.19;109118;1287;22194;-83
2024/01/13 04:48:20;;;;;;;14.10;10.50;;;;;;;-0.19;87.95;100157.19;109327;1287;22849;-86
2024/01/13 04:50:48;;;;;;;12.50;10.90;;;;;;;-0.19;87.82;100159.27;109648;1286;22878;-83
2024/01/13 04:53:16;;;;;;;10.60;9.10;;;;;;;-0.19;88.05;100152.17;109674;1287;22120;-81
2024/01/13 04:55:45;;;;;;;11.70;9.30;;;;;;;-0.19;87.92;100150.61;109545;1282;22127;-82
2024/01/13 04:58:14;;;;;;;12.50;9.90;;;;;;;-0.19;88.02;100149.23;109850;1286;22146;-82
2024/01/13 05:00:41;;;;;;;11.00;9.50;;;;;;;-0.17;88.05;100150.52;109900;1287;22130;-83
2024/01/13 05:03:09;;;;;;;13.10;10.60;;;;;;;-0.19;87.92;100146.83;109910;1282;22113;-83
2024/01/13 05:05:36;;;;;;;10.70;9.20;;;;;;;-0.21;88.12;100145.56;109299;1296;22338;-82
2024/01/13 05:08:04;;;;;;;11.90;9.60;;;;;;;-0.20;88.16;100147.11;109239;1289;22236;-84
2024/01/13 05:10:31;;;;;;;11.80;9.40;;;;;;;-0.21;88.26;100150.55;108591;1299;22953;-85
2024/01/13 05:12:58;;;;;;;11.00;8.90;;;;;;;-0.18;88.31;100150.65;108391;1300;22332;-85
2024/01/13 05:15:29;;;;;;;11.30;9.50;;;;;;;-0.17;88.47;100150.52;107558;1308;22307;-85
2024/01/13 05:17:56;;;;;;;10.40;9.50;;;;;;;-0.19;88.47;100151.51;107344;1308;22218;-84
2024/01/13 05:20:24;;;;;;;11.50;8.70;;;;;;;-0.19;88.60;100148.70;107657;1308;22863;-84
2024/01/13 05:22:51;;;;;;;11.30;9.00;;;;;;;-0.23;88.61;100144.27;107218;1314;23047;-82
2024/01/13 05:25:22;;;;;;;9.90;9.10;;;;;;;-0.24;88.77;100147.69;107150;1307;22280;-84
2024/01/13 05:27:52;;;;;;;10.00;9.00;;;;;;;-0.27;88.84;100147.26;107016;1314;22258;-83
2024/01/13 05:30:23;;;;;;;9.90;9.00;;;;;;;-0.29;88.99;100159.64;107185;1309;22281;-83
2024/01/13 05:32:50;;;;;;;10.50;8.30;;;;;;;-0.29;89.12;100161.38;107587;1302;22212;-84
2024/01/13 05:35:19;;;;;;;11.30;8.30;;;;;;;-0.28;89.17;100162.45;108584;1296;23041;-83
2024/01/13 05:37:46;;;;;;;9.30;8.40;;;;;;;-0.24;89.25;100168.98;108825;1281;22197;-83
2024/01/13 05:40:13;;;;;;;11.20;10.00;;;;;;;-0.24;89.10;100170.38;108971;1290;22139;-83
2024/01/13 05:42:41;;;;;;;10.00;9.00;;;;;;;-0.26;89.03;100166.51;109519;1289;22363;-83
2024/01/13 05:45:09;;;;;;;9.70;8.80;;;;;;;-0.27;89.19;100166.14;109265;1283;22316;-82
2024/01/13 05:47:38;;;;;;;8.60;7.70;;;;;;;-0.30;89.47;100173.11;109489;1285;22205;-85
2024/01/13 05:50:07;;;;;;;11.90;9.00;;;;;;;-0.32;89.71;100172.52;109138;1288;23161;-86
2024/01/13 05:52:36;;;;;;;10.80;8.50;;;;;;;-0.34;90.08;100170.73;108616;1299;22215;-84
2024/01/13 05:55:04;;;;;;;11.50;8.50;;;;;;;-0.33;89.94;100171.14;108558;1299;22154;-84
2024/01/13 05:57:33;;;;;;;8.40;7.50;;;;;;;-0.31;89.97;100169.30;108514;1299;22193;-84
2024/01/13 06:00:00;;;;;;;10.10;9.10;;;;;;;-0.28;89.92;100164.90;108499;1299;23044;-83
2024/01/13 06:02:32;;;;;;;9.00;8.20;;;;;;;-0.26;90.07;100166.33;108579;1299;22261;-83
2024/01/13 06:05:01;;;;;;;9.90;8.90;;;;;;;-0.29;90.34;100164.67;108475;1299;22168;-83
2024/01/13 06:07:29;;;;;;;9.60;8.40;;;;;;;-0.29;90.57;100159.86;108643;1296;23127;-84
2024/01/13 06:10:08;;;;;;;10.10;9.10;;;;;;;-0.26;90.53;100161.48;108916;1290;22292;-84
2024/01/13 06:12:35;;;;;;;9.00;8.20;;;;;;;-0.27;90.32;100160.59;109569;1290;22925;-83
2024/01/13 06:15:03;;;;;;;9.20;8.30;;;;;;;-0.29;90.27;100156.38;109413;1289;22202;-83
2024/01/13 06:17:31;;;;;;;11.10;8.10;;;;;;;-0.28;90.34;100157.98;108893;1294;23008;-84
2024/01/13 06:19:58;;;;;;;8.50;7.70;;;;;;;-0.27;90.29;100158.18;108755;1296;22341;-83
2024/01/13 06:22:27;;;;;;;9.50;8.40;;;;;;;-0.24;90.37;100153.40;108802;1296;22174;-82
2024/01/13 06:24:56;;;;;;;8.90;8.00;;;;;;;-0.24;90.07;100156.34;108613;1296;22161;-82
2024/01/13 06:27:24;;;;;;;9.80;8.70;;;;;;;-0.26;90.07;100158.20;108785;1296;22183;-83
2024/01/13 06:29:51;;;;;;;11.90;8.90;;;;;;;-0.25;90.07;100160.46;108776;1296;22252;-85
2024/01/13 06:32:18;;;;;;;9.70;8.50;;;;;;;-0.29;89.86;100158.11;108949;1296;23005;-82
2024/01/13 06:34:45;;;;;;;13.00;10.00;;;;;;;-0.31;89.94;100158.04;108862;1289;22847;-84
2024/01/13 06:37:12;;;;;;;9.40;8.50;;;;;;;-0.30;90.21;100160.13;109492;1289;22229;-84
2024/01/13 06:39:43;;;;;;;10.40;8.40;;;;;;;-0.27;90.13;100164.25;108903;1294;22204;-83
2024/01/13 06:42:11;;;;;;;9.40;7.80;;;;;;;-0.26;89.96;100161.98;109108;1294;22163;-83
2024/01/13 06:44:38;;;;;;;10.60;8.90;;;;;;;-0.27;89.99;100163.00;109051;1294;22845;-82
2024/01/13 06:47:10;;;;;;;9.90;8.00;;;;;;;-0.27;90.06;100165.45;108971;1294;22198;-82
2024/01/13 06:49:48;;;;;;;8.90;8.00;;;;;;;-0.25;90.08;100169.13;108886;1294;23339;-85
2024/01/13 06:52:18;;;;;;;8.80;7.90;;;;;;;-0.24;89.85;100169.51;108527;1300;22186;-84
2024/01/13 06:54:45;;;;;;;10.30;8.00;;;;;;;-0.26;89.83;100170.48;108586;1300;22257;-86
2024/01/13 06:57:16;;;;;;;10.30;8.40;;;;;;;-0.28;89.83;100168.18;107995;1302;22192;-86
2024/01/13 07:00:07;;;;;;;9.10;8.00;;;;;;;-0.30;89.95;100170.71;108378;1302;22180;-85
2024/01/13 07:02:36;;;;;;;9.50;8.50;;;;;;;-0.29;90.05;100172.63;108175;1305;22189;-86
2024/01/13 07:05:05;;;;;;;9.10;8.20;;;;;;;-0.26;90.19;100171.86;107888;1305;22151;-85
2024/01/13 07:07:45;;;;;;;10.20;8.00;;;;;;;-0.21;90.18;100175.15;107469;1309;22178;-86
2024/01/13 07:10:13;;;;;;;8.50;7.60;;;;;;;-0.18;90.11;100182.67;107802;1297;22226;-85
2024/01/13 07:12:41;;;;;;;8.80;7.90;;;;;;;-0.16;89.98;100182.40;107702;1308;23478;-85
2024/01/13 07:15:09;;;;;;;8.90;8.00;;;;;;;-0.16;89.77;100185.52;107609;1308;22194;-85
2024/01/13 07:17:36;;;;;;;10.10;8.60;;;;;;;-0.19;89.72;100189.24;107306;1306;22276;-85
2024/01/13 07:20:05;;;;;;;9.00;8.00;;;;;;;-0.18;90.09;100187.88;107228;1309;22207;-86
2024/01/13 07:22:34;;;;;;;10.30;9.20;;;;;;;-0.17;89.87;100190.69;107647;1306;22205;-84
2024/01/13 07:25:02;;;;;;;9.80;8.40;;;;;;;-0.15;90.04;100190.72;107892;1303;22448;-86
2024/01/13 07:27:32;;;;;;;12.80;9.10;;;;;;;-0.13;89.88;100188.88;108460;1302;22208;-85
2024/01/13 07:30:04;;;;;;;10.80;8.70;;;;;;;-0.11;90.03;100190.68;108629;1302;22210;-84
2024/01/13 07:32:33;;;;;;;13.40;10.10;;;;;;;-0.09;89.85;100190.23;108857;1302;22130;-84
2024/01/13 07:35:02;;;;;;;13.00;9.80;;;;;;;-0.09;89.71;100191.44;108662;1296;23029;-84
2024/01/13 07:37:34;;;;;;;11.60;9.90;;;;;;;-0.08;89.93;100193.89;109388;1290;22135;-84
2024/01/13 07:40:02;;;;;;;11.30;10.00;;;;;;;-0.11;89.66;100195.17;109585;1289;22909;-85
2024/01/13 07:42:52;;;;;;;13.20;10.60;;;;;;;-0.12;89.90;100196.36;109020;1296;22292;-84
2024/01/13 07:45:19;;;;;;;11.90;9.70;;;;;;;-0.07;90.27;100196.85;108611;1296;22299;-84
2024/01/13 07:47:46;;;;;;;14.90;11.10;;;;;;;-0.05;89.96;100196.56;108814;1295;22267;-84
2024/01/13 07:50:14;;;;;;;11.50;11.30;;;;;;;-0.06;89.92;100197.59;108929;1289;22207;-85
2024/01/13 07:52:41;;;;;;;12.40;11.10;;;;;;;-0.07;89.86;100198.08;108643;1295;22159;-85
2024/01/13 07:55:31;;;;;;;13.80;10.80;;;;;;;-0.10;89.97;100191.73;108653;1295;22944;-85
2024/01/13 07:57:59;;;;;;;14.20;11.80;;;;;;;-0.13;89.83;100192.70;108924;1296;22267;-85
2024/01/13 08:00:29;;;;;;;14.20;11.30;;;;;;;-0.15;89.89;100188.84;108276;1300;22161;-85
2024/01/13 08:02:59;;;;;;;14.20;12.40;;;;;;;-0.14;90.03;100184.02;108492;1300;22322;-86
2024/01/13 08:05:48;;;;;;;14.60;12.60;;;;;;;-0.11;89.93;100181.85;108445;1300;22272;-85
2024/01/13 08:08:30;;;;;;;14.10;10.30;;;;;;;-0.04;90.16;100184.15;109147;1294;22200;-85
2024/01/13 08:10:58;;;;;;;13.10;10.30;;;;;;;-0.01;89.75;100185.45;109253;1294;22961;-85
2024/01/13 08:13:27;;;;;;;14.50;12.50;;;;;;;0.02;89.70;100182.92;108682;1294;22146;-85
2024/01/13 08:15:55;;;;;;;13.70;11.60;;;;;;;0.07;89.74;100177.53;109033;1294;23034;-85
2024/01/13 08:18:24;;;;;;;15.80;12.30;;;;;;;0.08;89.38;100172.03;109329;1290;22174;-85
2024/01/13 08:20:56;;;;;;;13.50;11.10;;;;;;;0.13;89.65;100173.21;108917;1296;22277;-86
2024/01/13 08:24:11;;;;;;;14.20;11.80;;;;;;;0.17;89.06;100176.98;109114;1294;22222;-86
2024/01/13 08:26:49;;;;;;;15.10;11.10;;;;;;;0.20;88.99;100177.23;108951;1294;22198;-87
2024/01/13 08:31:16;;;;;;;12.70;11.30;;;;;;;0.23;88.96;100178.71;106694;1312;545412;-86
2024/01/13 08:34:49;;;;;;;11.90;10.50;;;;;;;0.25;88.91;100181.88;108556;1293;22613;-87
2024/01/13 08:37:39;;;;;;;13.40;10.80;;;;;;;0.28;88.61;100183.02;108592;1297;25450;-85
2024/01/13 08:40:48;;;;;;;13.10;11.60;;;;;;;0.27;88.37;100176.05;107058;1294;22501;-87
2024/01/13 08:44:45;;;;;;;12.40;10.20;;;;;;;0.22;88.18;100180.27;103694;1295;5148654;-87
2024/01/13 08:48:34;;;;;;;12.50;10.00;;;;;;;0.20;88.10;100177.58;105466;1303;22563;-87
2024/01/13 08:52:23;;;;;;;12.90;10.30;;;;;;;0.18;88.02;100182.89;105035;1301;22604;-87
2024/01/13 08:56:03;;;;;;;11.50;10.20;;;;;;;0.20;87.99;100186.92;104926;1307;24157;-87
2024/01/13 08:59:33;;;;;;;9.70;8.30;;;;;;;0.23;87.94;100190.15;104981;1307;26741;-88
2024/01/13 09:02:42;;;;;;;12.90;10.40;;;;;;;0.16;87.06;100196.52;106133;1304;21896;-86
2024/01/13 09:05:28;;;;;;;14.70;11.50;;;;;;;0.13;87.58;100200.05;107452;1303;22611;-83
2024/01/13 09:08:59;;;;;;;13.10;9.30;;;;;;;0.12;87.27;100201.08;107835;1303;22559;-83
2024/01/13 09:12:57;;;;;;;13.30;10.20;;;;;;;0.09;87.12;100198.41;107613;1302;22552;-86
2024/01/13 09:17:06;;;;;;;12.20;10.70;;;;;;;0.12;87.36;100190.48;108090;1301;22707;-84
2024/01/13 09:20:42;;;;;;;12.10;8.70;;;;;;;0.15;86.99;100180.71;107874;1300;22579;-86
2024/01/13 09:24:12;;;;;;;9.30;8.30;;;;;;;0.10;86.66;100174.54;106501;1306;22714;-86
2024/01/13 09:27:25;;;;;;;13.00;9.80;;;;;;;0.12;86.63;100162.98;106287;1306;22578;-84
2024/01/13 09:30:54;;;;;;;;;;;;;;;0.18;86.74;100159.17;106914;1303;22668;-84
2024/01/13 09:34:54;;;;;;;11.50;8.40;;;;;;;0.23;86.27;100166.23;107007;1303;25429;-85
2024/01/13 09:38:54;;;;;;;9.50;7.60;;;;;;;0.25;85.86;100157.80;105279;1310;24005;-85
2024/01/13 09:42:05;;;;;;;11.60;9.00;;;;;;;0.24;85.73;100159.17;105333;1304;22565;-84
2024/01/13 09:44:58;;;;;;;10.70;8.70;;;;;;;0.21;85.34;100157.85;108352;1299;22239;-85
2024/01/13 09:47:32;;;;;;;11.00;8.50;;;;;;;0.18;85.32;100153.80;108774;1299;22158;-84
2024/01/13 09:50:12;;;;;;;10.50;8.50;;;;;;;0.20;85.21;100153.49;109684;1284;22174;-85
2024/01/13 09:53:44;;;;;;;11.70;9.60;;;;;;;0.18;85.15;100146.00;109925;1284;22441;-86
2024/01/13 09:56:56;;;;;;;13.60;9.50;;;;;;;0.18;85.00;100139.77;109963;1284;22143;-86
2024/01/13 09:59:50;;;;;;;13.00;9.50;;;;;;;0.19;85.12;100129.05;109643;1289;22140;-86
2024/01/13 10:02:40;;;;;;;13.30;10.20;;;;;;;0.28;85.42;100131.23;109899;1281;22154;-88
2024/01/13 10:05:59;;;;;;;15.50;12.20;;;;;;;0.35;85.07;100120.85;110007;1281;22155;-86
2024/01/13 10:08:49;;;;;;;16.90;13.80;;;;;;;0.29;84.41;100118.75;109767;1286;23090;-85
2024/01/13 10:11:23;;;;;;;21.00;14.30;;;;;;;0.19;84.47;100113.98;109563;1291;22882;-83
2024/01/13 10:14:08;;;;;;;21.40;13.80;;;;;;;0.09;84.64;100112.67;108746;1297;22285;-87
2024/01/13 10:17:02;;;;;;;20.80;15.00;;;;;;;0.03;84.95;100112.46;108883;1292;22146;-86
2024/01/13 10:19:49;;;;;;;19.30;15.10;;;;;;;-0.06;85.03;100102.55;108763;1297;22425;-85
2024/01/13 10:22:37;;;;;;;19.00;13.90;;;;;;;-0.10;85.52;100104.86;108222;1302;23014;-85
2024/01/13 10:25:09;;;;;;;19.50;14.80;;;;;;;-0.11;85.32;100101.35;107589;1307;22226;-86
2024/01/13 10:27:39;;;;;;;21.50;15.00;;;;;;;-0.12;85.54;100099.41;107793;1304;23005;-86
2024/01/13 10:30:54;;;;;;;16.40;13.40;;;;;;;-0.08;85.95;100098.83;108388;1298;22843;-85
2024/01/13 10:34:19;;;;;;;22.70;16.50;;;;;;;-0.05;85.74;100098.06;109167;1294;22368;-87
2024/01/13 10:37:25;;;;;;;16.60;13.50;;;;;;;-0.11;85.54;100089.08;109156;1287;22155;-84
2024/01/13 10:40:14;;;;;;;21.30;15.40;;;;;;;-0.14;85.67;100084.98;109833;1281;22182;-86
2024/01/13 10:44:03;;;;;;;17.20;14.70;;;;;;;-0.16;85.84;100086.14;109661;1287;22146;-87
2024/01/13 10:47:33;;;;;;;18.40;13.60;;;;;;;-0.21;85.73;100074.91;109747;1288;22186;-85
2024/01/13 10:50:51;;;;;;;18.20;13.10;;;;;;;-0.30;85.54;100064.98;109730;1286;22415;-87
2024/01/13 10:53:54;;;;;;;18.50;14.30;;;;;;;-0.39;85.63;100063.15;109166;1292;23104;-87
2024/01/13 10:57:26;;;;;;;18.10;13.80;;;;;;;-0.45;85.84;100049.81;109195;1292;22193;-88
2024/01/13 11:01:18;;;;;;;15.50;12.30;;;;;;;-0.40;86.04;100041.50;109082;1292;22968;-86
2024/01/13 11:04:27;;;;;;;18.00;12.80;;;;;;;-0.37;85.91;100027.73;108942;1295;22261;-87
2024/01/13 11:08:04;;;;;;;19.80;13.30;;;;;;;-0.37;85.79;100020.48;108894;1296;22974;-85
2024/01/13 11:11:53;;;;;;;16.60;13.10;;;;;;;-0.31;86.08;100010.43;108833;1296;22169;-87
2024/01/13 11:14:57;;;;;;;19.60;14.30;;;;;;;-0.29;85.95;100024.69;108520;1300;23118;-81
2024/01/13 11:17:51;;;;;;;20.80;13.90;;;;;;;-0.31;85.88;100023.23;108531;1295;22836;-87
2024/01/13 11:21:32;;;;;;;20.80;14.30;;;;;;;-0.45;86.00;100020.58;108674;1299;22372;-88
2024/01/13 11:25:00;;;;;;;18.20;14.30;;;;;;;-0.51;86.11;100021.42;108508;1299;22477;-86
2024/01/13 11:28:12;;;;;;;18.70;13.80;;;;;;;-0.58;86.34;100022.61;108817;1291;22186;-87
2024/01/13 11:31:20;;;;;;;22.70;14.90;;;;;;;-0.60;86.58;100028.95;109376;1291;23006;-87
2024/01/13 11:34:13;;;;;;;18.40;13.10;;;;;;;-0.64;86.64;100026.41;109460;1292;23576;-86
2024/01/13 11:37:04;;;;;;;18.30;13.80;;;;;;;-0.62;86.62;100022.34;109423;1293;22160;-90
2024/01/13 11:40:04;;;;;;;19.70;14.10;;;;;;;-0.64;86.64;100009.98;109154;1295;23118;-87
2024/01/13 11:42:35;;;;;;;14.40;12.00;;;;;;;-0.64;86.80;100013.95;109412;1290;22156;-87
2024/01/13 11:45:04;;;;;;;15.10;11.70;;;;;;;-0.65;86.57;100009.97;109342;1287;22202;-87
2024/01/13 11:48:16;;;;;;;16.10;12.80;;;;;;;-0.64;86.68;100003.93;109764;1286;22180;-86
2024/01/13 11:50:50;;;;;;;16.50;13.40;;;;;;;-0.63;86.58;99999.13;109773;1286;22193;-87
2024/01/13 11:53:43;;;;;;;18.20;13.20;;;;;;;-0.63;86.44;99987.17;109987;1281;22144;-86
2024/01/13 11:56:54;;;;;;;15.40;11.70;;;;;;;-0.61;86.61;99986.53;109908;1279;22338;-88
2024/01/13 11:59:52;;;;;;;14.70;11.50;;;;;;;-0.53;86.44;99992.34;110226;1278;22332;-86
2024/01/13 12:02:53;;;;;;;17.60;12.20;;;;;;;-0.51;86.11;99981.30;109984;1282;22173;-86
2024/01/13 12:06:50;;;;;;;18.40;13.70;;;;;;;-0.49;86.22;99974.09;110033;1273;22175;-87
2024/01/13 12:10:53;;;;;;;13.40;10.50;;;;;;;-0.41;86.26;99958.05;109952;1275;22376;-86
2024/01/13 12:14:39;;;;;;;14.80;12.40;;;;;;;-0.48;85.27;99954.23;109804;1286;22185;-87